sensor_id;sensor_type;location;lat;lon;timestamp;P1;durP1;ratioP1;P2;durP2;ratioP2
15833;SDS011;8017;50.812;4.934;2022-11-20T00:02:13;27.20;;;20.80;;
15833;SDS011;8017;50.812;4.934;2022-11-20T00:05:15;26.93;;;19.53;;
15833;SDS011;8017;50.812;4.934;2022-11-20T00:08:18;27.20;;;20.43;;
15833;SDS011;8017;50.812;4.934;2022-11-20T00:11:20;27.03;;;20.60;;
15833;SDS011;8017;50.812;4.934;2022-11-20T00:14:24;25.03;;;19.07;;
15833;SDS011;8017;50.812;4.934;2022-11-20T00:17:27;25.97;;;20.57;;
15833;SDS011;8017;50.812;4.934;2022-11-20T00:20:29;26.00;;;19.97;;
15833;SDS011;8017;50.812;4.934;2022-11-20T00:23:31;25.33;;;19.77;;
15833;SDS011;8017;50.812;4.934;2022-11-20T00:26:33;26.10;;;19.30;;
15833;SDS011;8017;50.812;4.934;2022-11-20T00:29:35;27.30;;;19.90;;
15833;SDS011;8017;50.812;4.934;2022-11-20T00:32:38;24.77;;;19.87;;
15833;SDS011;8017;50.812;4.934;2022-11-20T00:35:40;24.70;;;17.97;;
15833;SDS011;8017;50.812;4.934;2022-11-20T00:38:42;26.03;;;19.77;;
15833;SDS011;8017;50.812;4.934;2022-11-20T00:41:44;28.07;;;19.60;;
15833;SDS011;8017;50.812;4.934;2022-11-20T00:44:46;24.13;;;19.07;;
15833;SDS011;8017;50.812;4.934;2022-11-20T00:47:49;25.63;;;19.37;;
15833;SDS011;8017;50.812;4.934;2022-11-20T00:50:52;26.87;;;20.47;;
15833;SDS011;8017;50.812;4.934;2022-11-20T00:53:54;27.47;;;20.13;;
15833;SDS011;8017;50.812;4.934;2022-11-20T00:56:57;24.40;;;18.53;;
15833;SDS011;8017;50.812;4.934;2022-11-20T00:59:59;28.90;;;19.27;;
15833;SDS011;8017;50.812;4.934;2022-11-20T01:03:02;25.10;;;19.00;;
15833;SDS011;8017;50.812;4.934;2022-11-20T01:06:05;23.93;;;19.07;;
15833;SDS011;8017;50.812;4.934;2022-11-20T01:09:10;29.20;;;20.03;;
15833;SDS011;8017;50.812;4.934;2022-11-20T01:12:13;23.73;;;17.90;;
15833;SDS011;8017;50.812;4.934;2022-11-20T01:15:15;25.37;;;18.50;;
15833;SDS011;8017;50.812;4.934;2022-11-20T01:18:18;24.23;;;19.87;;
15833;SDS011;8017;50.812;4.934;2022-11-20T01:21:21;25.30;;;19.57;;
15833;SDS011;8017;50.812;4.934;2022-11-20T01:24:24;24.90;;;19.73;;
15833;SDS011;8017;50.812;4.934;2022-11-20T01:27:26;25.30;;;19.97;;
15833;SDS011;8017;50.812;4.934;2022-11-20T01:30:28;27.73;;;21.17;;
15833;SDS011;8017;50.812;4.934;2022-11-20T01:33:31;26.00;;;20.17;;
15833;SDS011;8017;50.812;4.934;2022-11-20T01:36:33;26.07;;;20.03;;
15833;SDS011;8017;50.812;4.934;2022-11-20T01:39:36;24.07;;;19.03;;
15833;SDS011;8017;50.812;4.934;2022-11-20T01:42:38;26.40;;;20.83;;
15833;SDS011;8017;50.812;4.934;2022-11-20T01:46:13;28.93;;;20.97;;
15833;SDS011;8017;50.812;4.934;2022-11-20T01:49:18;25.63;;;19.47;;
15833;SDS011;8017;50.812;4.934;2022-11-20T01:52:25;25.20;;;20.17;;
15833;SDS011;8017;50.812;4.934;2022-11-20T01:55:32;24.40;;;19.40;;
15833;SDS011;8017;50.812;4.934;2022-11-20T01:58:38;29.80;;;20.30;;
15833;SDS011;8017;50.812;4.934;2022-11-20T02:01:45;33.03;;;21.53;;
15833;SDS011;8017;50.812;4.934;2022-11-20T02:04:49;35.93;;;22.30;;
15833;SDS011;8017;50.812;4.934;2022-11-20T02:07:55;32.23;;;24.17;;
15833;SDS011;8017;50.812;4.934;2022-11-20T02:10:58;40.60;;;24.97;;
15833;SDS011;8017;50.812;4.934;2022-11-20T02:14:00;38.93;;;24.57;;
15833;SDS011;8017;50.812;4.934;2022-11-20T02:17:02;37.20;;;25.17;;
15833;SDS011;8017;50.812;4.934;2022-11-20T02:20:06;43.30;;;26.60;;
15833;SDS011;8017;50.812;4.934;2022-11-20T02:23:10;42.33;;;26.13;;
15833;SDS011;8017;50.812;4.934;2022-11-20T02:26:18;39.93;;;26.03;;
15833;SDS011;8017;50.812;4.934;2022-11-20T02:29:24;41.40;;;25.80;;
15833;SDS011;8017;50.812;4.934;2022-11-20T02:32:32;41.77;;;27.93;;
15833;SDS011;8017;50.812;4.934;2022-11-20T02:35:40;46.97;;;26.40;;
15833;SDS011;8017;50.812;4.934;2022-11-20T02:38:44;44.17;;;26.00;;
15833;SDS011;8017;50.812;4.934;2022-11-20T02:41:47;42.47;;;26.53;;
15833;SDS011;8017;50.812;4.934;2022-11-20T02:44:49;44.17;;;28.67;;
15833;SDS011;8017;50.812;4.934;2022-11-20T02:47:51;49.47;;;28.27;;
15833;SDS011;8017;50.812;4.934;2022-11-20T02:50:53;46.13;;;28.27;;
15833;SDS011;8017;50.812;4.934;2022-11-20T02:53:55;47.57;;;28.07;;
15833;SDS011;8017;50.812;4.934;2022-11-20T02:56:58;52.87;;;29.80;;
15833;SDS011;8017;50.812;4.934;2022-11-20T03:00:00;47.83;;;29.10;;
15833;SDS011;8017;50.812;4.934;2022-11-20T03:03:03;48.23;;;29.37;;
15833;SDS011;8017;50.812;4.934;2022-11-20T03:06:05;46.93;;;30.57;;
15833;SDS011;8017;50.812;4.934;2022-11-20T03:09:07;53.83;;;31.90;;
15833;SDS011;8017;50.812;4.934;2022-11-20T03:12:11;53.60;;;32.00;;
15833;SDS011;8017;50.812;4.934;2022-11-20T03:15:13;50.20;;;29.30;;
15833;SDS011;8017;50.812;4.934;2022-11-20T03:18:14;58.83;;;33.30;;
15833;SDS011;8017;50.812;4.934;2022-11-20T03:21:16;56.13;;;33.67;;
15833;SDS011;8017;50.812;4.934;2022-11-20T03:24:18;57.50;;;34.00;;
15833;SDS011;8017;50.812;4.934;2022-11-20T03:27:21;50.30;;;31.57;;
15833;SDS011;8017;50.812;4.934;2022-11-20T03:30:23;56.80;;;31.90;;
15833;SDS011;8017;50.812;4.934;2022-11-20T03:33:27;58.40;;;33.43;;
15833;SDS011;8017;50.812;4.934;2022-11-20T03:36:29;55.67;;;33.07;;
15833;SDS011;8017;50.812;4.934;2022-11-20T03:39:31;53.80;;;33.50;;
15833;SDS011;8017;50.812;4.934;2022-11-20T03:42:34;52.10;;;33.00;;
15833;SDS011;8017;50.812;4.934;2022-11-20T03:45:48;54.93;;;34.00;;
15833;SDS011;8017;50.812;4.934;2022-11-20T03:48:50;56.37;;;34.77;;
15833;SDS011;8017;50.812;4.934;2022-11-20T03:51:52;55.70;;;34.63;;
15833;SDS011;8017;50.812;4.934;2022-11-20T03:54:54;59.83;;;35.00;;
15833;SDS011;8017;50.812;4.934;2022-11-20T03:57:57;62.40;;;35.90;;
15833;SDS011;8017;50.812;4.934;2022-11-20T04:01:03;58.73;;;33.60;;
15833;SDS011;8017;50.812;4.934;2022-11-20T04:04:06;57.47;;;35.07;;
15833;SDS011;8017;50.812;4.934;2022-11-20T04:07:08;60.13;;;36.43;;
15833;SDS011;8017;50.812;4.934;2022-11-20T04:10:10;60.07;;;35.23;;
15833;SDS011;8017;50.812;4.934;2022-11-20T04:13:13;55.50;;;32.93;;
15833;SDS011;8017;50.812;4.934;2022-11-20T04:16:15;53.97;;;32.40;;
15833;SDS011;8017;50.812;4.934;2022-11-20T04:19:17;50.80;;;32.37;;
15833;SDS011;8017;50.812;4.934;2022-11-20T04:22:19;44.97;;;29.43;;
15833;SDS011;8017;50.812;4.934;2022-11-20T04:25:21;48.37;;;29.20;;
15833;SDS011;8017;50.812;4.934;2022-11-20T04:28:24;52.30;;;31.10;;
15833;SDS011;8017;50.812;4.934;2022-11-20T04:31:27;49.83;;;30.37;;
15833;SDS011;8017;50.812;4.934;2022-11-20T04:34:30;44.60;;;29.83;;
15833;SDS011;8017;50.812;4.934;2022-11-20T04:37:31;48.27;;;30.33;;
15833;SDS011;8017;50.812;4.934;2022-11-20T04:40:33;46.87;;;28.90;;
15833;SDS011;8017;50.812;4.934;2022-11-20T04:43:37;48.67;;;29.23;;
15833;SDS011;8017;50.812;4.934;2022-11-20T04:46:39;43.30;;;27.37;;
15833;SDS011;8017;50.812;4.934;2022-11-20T04:49:42;43.93;;;27.77;;
15833;SDS011;8017;50.812;4.934;2022-11-20T04:52:44;47.33;;;30.00;;
15833;SDS011;8017;50.812;4.934;2022-11-20T04:55:46;47.53;;;27.63;;
15833;SDS011;8017;50.812;4.934;2022-11-20T04:58:49;46.67;;;29.17;;
15833;SDS011;8017;50.812;4.934;2022-11-20T05:01:51;49.67;;;28.93;;
15833;SDS011;8017;50.812;4.934;2022-11-20T05:04:53;45.17;;;28.20;;
15833;SDS011;8017;50.812;4.934;2022-11-20T05:07:55;46.67;;;27.47;;
15833;SDS011;8017;50.812;4.934;2022-11-20T05:11:01;42.10;;;27.40;;
15833;SDS011;8017;50.812;4.934;2022-11-20T05:14:05;46.43;;;26.90;;
15833;SDS011;8017;50.812;4.934;2022-11-20T05:17:09;43.73;;;27.37;;
15833;SDS011;8017;50.812;4.934;2022-11-20T05:20:11;43.37;;;27.63;;
15833;SDS011;8017;50.812;4.934;2022-11-20T05:23:13;44.83;;;27.50;;
15833;SDS011;8017;50.812;4.934;2022-11-20T05:26:15;41.70;;;28.10;;
15833;SDS011;8017;50.812;4.934;2022-11-20T05:29:20;42.67;;;27.80;;
15833;SDS011;8017;50.812;4.934;2022-11-20T05:32:22;45.33;;;29.17;;
15833;SDS011;8017;50.812;4.934;2022-11-20T05:35:25;43.47;;;28.07;;
15833;SDS011;8017;50.812;4.934;2022-11-20T05:38:27;48.10;;;29.13;;
15833;SDS011;8017;50.812;4.934;2022-11-20T05:41:29;43.33;;;27.90;;
15833;SDS011;8017;50.812;4.934;2022-11-20T05:44:32;44.90;;;26.27;;
15833;SDS011;8017;50.812;4.934;2022-11-20T05:47:34;43.60;;;26.60;;
15833;SDS011;8017;50.812;4.934;2022-11-20T05:50:36;40.23;;;26.37;;
15833;SDS011;8017;50.812;4.934;2022-11-20T05:53:37;38.73;;;25.37;;
15833;SDS011;8017;50.812;4.934;2022-11-20T05:56:40;39.90;;;24.00;;
15833;SDS011;8017;50.812;4.934;2022-11-20T05:59:43;38.90;;;22.57;;
15833;SDS011;8017;50.812;4.934;2022-11-20T06:02:45;39.70;;;25.13;;
15833;SDS011;8017;50.812;4.934;2022-11-20T06:05:47;40.27;;;24.67;;
15833;SDS011;8017;50.812;4.934;2022-11-20T06:08:48;39.03;;;24.73;;
15833;SDS011;8017;50.812;4.934;2022-11-20T06:11:50;38.67;;;24.00;;
15833;SDS011;8017;50.812;4.934;2022-11-20T06:14:54;39.57;;;22.80;;
15833;SDS011;8017;50.812;4.934;2022-11-20T06:17:55;38.83;;;24.40;;
15833;SDS011;8017;50.812;4.934;2022-11-20T06:20:59;41.87;;;25.60;;
15833;SDS011;8017;50.812;4.934;2022-11-20T06:24:02;42.27;;;25.47;;
15833;SDS011;8017;50.812;4.934;2022-11-20T06:27:05;40.80;;;25.00;;
15833;SDS011;8017;50.812;4.934;2022-11-20T06:30:09;42.33;;;27.00;;
15833;SDS011;8017;50.812;4.934;2022-11-20T06:33:11;41.83;;;25.10;;
15833;SDS011;8017;50.812;4.934;2022-11-20T06:36:14;43.87;;;26.97;;
15833;SDS011;8017;50.812;4.934;2022-11-20T06:39:17;41.47;;;27.00;;
15833;SDS011;8017;50.812;4.934;2022-11-20T06:42:18;42.27;;;25.97;;
15833;SDS011;8017;50.812;4.934;2022-11-20T06:45:22;46.47;;;26.87;;
15833;SDS011;8017;50.812;4.934;2022-11-20T06:48:24;44.87;;;25.93;;
15833;SDS011;8017;50.812;4.934;2022-11-20T06:51:27;43.27;;;25.93;;
15833;SDS011;8017;50.812;4.934;2022-11-20T06:54:29;48.97;;;28.60;;
15833;SDS011;8017;50.812;4.934;2022-11-20T06:57:31;48.23;;;28.70;;
15833;SDS011;8017;50.812;4.934;2022-11-20T07:00:35;43.17;;;27.97;;
15833;SDS011;8017;50.812;4.934;2022-11-20T07:03:37;46.93;;;26.23;;
15833;SDS011;8017;50.812;4.934;2022-11-20T07:06:39;46.37;;;27.50;;
15833;SDS011;8017;50.812;4.934;2022-11-20T07:09:41;50.13;;;27.93;;
15833;SDS011;8017;50.812;4.934;2022-11-20T07:12:48;64.40;;;31.60;;
15833;SDS011;8017;50.812;4.934;2022-11-20T07:15:51;59.03;;;29.50;;
15833;SDS011;8017;50.812;4.934;2022-11-20T07:18:54;59.33;;;29.50;;
15833;SDS011;8017;50.812;4.934;2022-11-20T07:21:55;57.37;;;29.13;;
15833;SDS011;8017;50.812;4.934;2022-11-20T07:24:57;55.27;;;29.83;;
15833;SDS011;8017;50.812;4.934;2022-11-20T07:27:59;59.90;;;30.00;;
15833;SDS011;8017;50.812;4.934;2022-11-20T07:31:03;62.70;;;30.47;;
15833;SDS011;8017;50.812;4.934;2022-11-20T07:34:06;61.67;;;31.60;;
15833;SDS011;8017;50.812;4.934;2022-11-20T07:37:08;55.93;;;30.50;;
15833;SDS011;8017;50.812;4.934;2022-11-20T07:43:13;59.77;;;30.53;;
15833;SDS011;8017;50.812;4.934;2022-11-20T07:46:16;63.40;;;32.80;;
15833;SDS011;8017;50.812;4.934;2022-11-20T07:49:18;60.73;;;30.60;;
15833;SDS011;8017;50.812;4.934;2022-11-20T07:52:20;55.80;;;29.00;;
15833;SDS011;8017;50.812;4.934;2022-11-20T07:55:22;57.23;;;30.70;;
15833;SDS011;8017;50.812;4.934;2022-11-20T07:58:24;65.27;;;30.80;;
15833;SDS011;8017;50.812;4.934;2022-11-20T08:01:27;61.53;;;30.17;;
15833;SDS011;8017;50.812;4.934;2022-11-20T08:04:29;61.07;;;30.53;;
15833;SDS011;8017;50.812;4.934;2022-11-20T08:07:34;56.20;;;29.87;;
15833;SDS011;8017;50.812;4.934;2022-11-20T08:10:37;52.17;;;29.13;;
15833;SDS011;8017;50.812;4.934;2022-11-20T08:13:40;53.73;;;30.23;;
15833;SDS011;8017;50.812;4.934;2022-11-20T08:17:00;56.67;;;30.07;;
15833;SDS011;8017;50.812;4.934;2022-11-20T08:20:03;63.80;;;30.83;;
15833;SDS011;8017;50.812;4.934;2022-11-20T08:23:05;54.27;;;30.40;;
15833;SDS011;8017;50.812;4.934;2022-11-20T08:26:08;57.03;;;30.10;;
15833;SDS011;8017;50.812;4.934;2022-11-20T08:29:10;54.90;;;28.97;;
15833;SDS011;8017;50.812;4.934;2022-11-20T08:32:14;51.47;;;28.27;;
15833;SDS011;8017;50.812;4.934;2022-11-20T08:35:15;56.43;;;29.90;;
15833;SDS011;8017;50.812;4.934;2022-11-20T08:38:17;57.40;;;29.57;;
15833;SDS011;8017;50.812;4.934;2022-11-20T08:41:19;50.27;;;27.73;;
15833;SDS011;8017;50.812;4.934;2022-11-20T08:44:25;54.90;;;28.60;;
15833;SDS011;8017;50.812;4.934;2022-11-20T08:47:28;62.47;;;30.47;;
15833;SDS011;8017;50.812;4.934;2022-11-20T08:50:31;59.23;;;30.07;;
15833;SDS011;8017;50.812;4.934;2022-11-20T08:53:33;56.13;;;29.70;;
15833;SDS011;8017;50.812;4.934;2022-11-20T08:56:35;64.13;;;31.43;;
15833;SDS011;8017;50.812;4.934;2022-11-20T08:59:37;61.20;;;31.43;;
15833;SDS011;8017;50.812;4.934;2022-11-20T09:02:40;58.00;;;30.77;;
15833;SDS011;8017;50.812;4.934;2022-11-20T09:05:42;61.70;;;32.23;;
15833;SDS011;8017;50.812;4.934;2022-11-20T09:08:44;56.00;;;29.83;;
15833;SDS011;8017;50.812;4.934;2022-11-20T09:11:46;62.60;;;31.83;;
15833;SDS011;8017;50.812;4.934;2022-11-20T09:14:49;60.60;;;31.63;;
15833;SDS011;8017;50.812;4.934;2022-11-20T09:17:53;52.67;;;28.73;;
15833;SDS011;8017;50.812;4.934;2022-11-20T09:20:56;65.43;;;31.93;;
15833;SDS011;8017;50.812;4.934;2022-11-20T09:23:58;53.27;;;29.43;;
15833;SDS011;8017;50.812;4.934;2022-11-20T09:27:03;56.40;;;30.97;;
15833;SDS011;8017;50.812;4.934;2022-11-20T09:30:06;56.30;;;30.53;;
15833;SDS011;8017;50.812;4.934;2022-11-20T09:33:10;62.40;;;32.37;;
15833;SDS011;8017;50.812;4.934;2022-11-20T09:36:12;58.77;;;29.77;;
15833;SDS011;8017;50.812;4.934;2022-11-20T09:39:14;58.87;;;30.47;;
15833;SDS011;8017;50.812;4.934;2022-11-20T09:42:23;53.47;;;28.13;;
15833;SDS011;8017;50.812;4.934;2022-11-20T09:45:44;56.33;;;29.67;;
15833;SDS011;8017;50.812;4.934;2022-11-20T09:49:09;55.83;;;29.27;;
15833;SDS011;8017;50.812;4.934;2022-11-20T09:52:26;55.07;;;28.60;;
15833;SDS011;8017;50.812;4.934;2022-11-20T09:55:38;48.10;;;27.43;;
15833;SDS011;8017;50.812;4.934;2022-11-20T09:58:41;48.87;;;26.80;;
15833;SDS011;8017;50.812;4.934;2022-11-20T10:01:45;51.47;;;26.70;;
15833;SDS011;8017;50.812;4.934;2022-11-20T10:04:51;50.17;;;27.07;;
15833;SDS011;8017;50.812;4.934;2022-11-20T10:07:59;44.00;;;25.87;;
15833;SDS011;8017;50.812;4.934;2022-11-20T10:11:14;46.40;;;27.07;;
15833;SDS011;8017;50.812;4.934;2022-11-20T10:14:26;48.93;;;25.63;;
15833;SDS011;8017;50.812;4.934;2022-11-20T10:17:41;42.63;;;25.13;;
15833;SDS011;8017;50.812;4.934;2022-11-20T10:20:58;38.97;;;22.87;;
15833;SDS011;8017;50.812;4.934;2022-11-20T10:24:13;40.33;;;23.27;;
15833;SDS011;8017;50.812;4.934;2022-11-20T10:27:41;31.73;;;21.43;;
15833;SDS011;8017;50.812;4.934;2022-11-20T10:30:57;30.37;;;20.03;;
15833;SDS011;8017;50.812;4.934;2022-11-20T10:34:06;31.60;;;21.00;;
15833;SDS011;8017;50.812;4.934;2022-11-20T10:37:17;33.77;;;20.70;;
15833;SDS011;8017;50.812;4.934;2022-11-20T10:40:27;31.60;;;20.27;;
15833;SDS011;8017;50.812;4.934;2022-11-20T10:43:33;31.83;;;20.87;;
15833;SDS011;8017;50.812;4.934;2022-11-20T10:46:37;34.17;;;21.60;;
15833;SDS011;8017;50.812;4.934;2022-11-20T10:49:42;30.87;;;18.63;;
15833;SDS011;8017;50.812;4.934;2022-11-20T10:52:49;32.53;;;17.87;;
15833;SDS011;8017;50.812;4.934;2022-11-20T10:55:58;26.50;;;15.80;;
15833;SDS011;8017;50.812;4.934;2022-11-20T10:59:19;20.83;;;13.67;;
15833;SDS011;8017;50.812;4.934;2022-11-20T11:02:34;20.80;;;11.97;;
15833;SDS011;8017;50.812;4.934;2022-11-20T11:05:42;17.47;;;11.50;;
15833;SDS011;8017;50.812;4.934;2022-11-20T11:08:51;12.60;;;9.77;;
15833;SDS011;8017;50.812;4.934;2022-11-20T11:11:56;18.87;;;10.33;;
15833;SDS011;8017;50.812;4.934;2022-11-20T11:14:58;13.33;;;9.37;;
15833;SDS011;8017;50.812;4.934;2022-11-20T11:18:00;10.63;;;7.47;;
15833;SDS011;8017;50.812;4.934;2022-11-20T11:21:02;9.40;;;6.20;;
15833;SDS011;8017;50.812;4.934;2022-11-20T11:24:15;11.53;;;6.40;;
15833;SDS011;8017;50.812;4.934;2022-11-20T11:27:22;9.17;;;6.00;;
15833;SDS011;8017;50.812;4.934;2022-11-20T11:30:24;10.07;;;4.70;;
15833;SDS011;8017;50.812;4.934;2022-11-20T11:33:28;8.17;;;4.67;;
15833;SDS011;8017;50.812;4.934;2022-11-20T11:36:34;8.03;;;4.63;;
15833;SDS011;8017;50.812;4.934;2022-11-20T11:39:38;8.10;;;3.70;;
15833;SDS011;8017;50.812;4.934;2022-11-20T11:42:43;9.17;;;4.13;;
15833;SDS011;8017;50.812;4.934;2022-11-20T11:45:51;7.43;;;3.67;;
15833;SDS011;8017;50.812;4.934;2022-11-20T11:48:54;8.10;;;3.70;;
15833;SDS011;8017;50.812;4.934;2022-11-20T11:51:59;4.70;;;3.23;;
15833;SDS011;8017;50.812;4.934;2022-11-20T11:55:07;7.67;;;3.57;;
15833;SDS011;8017;50.812;4.934;2022-11-20T11:58:19;9.90;;;3.00;;
15833;SDS011;8017;50.812;4.934;2022-11-20T12:01:34;10.43;;;3.40;;
15833;SDS011;8017;50.812;4.934;2022-11-20T12:04:42;7.37;;;2.83;;
15833;SDS011;8017;50.812;4.934;2022-11-20T12:07:47;5.93;;;2.57;;
15833;SDS011;8017;50.812;4.934;2022-11-20T12:10:56;11.07;;;2.57;;
15833;SDS011;8017;50.812;4.934;2022-11-20T12:14:02;8.97;;;2.47;;
15833;SDS011;8017;50.812;4.934;2022-11-20T12:17:11;5.17;;;2.30;;
15833;SDS011;8017;50.812;4.934;2022-11-20T12:20:14;4.60;;;1.90;;
15833;SDS011;8017;50.812;4.934;2022-11-20T12:23:18;4.33;;;2.43;;
15833;SDS011;8017;50.812;4.934;2022-11-20T12:26:33;3.83;;;2.00;;
15833;SDS011;8017;50.812;4.934;2022-11-20T12:29:47;4.50;;;2.03;;
15833;SDS011;8017;50.812;4.934;2022-11-20T12:33:07;5.83;;;2.23;;
15833;SDS011;8017;50.812;4.934;2022-11-20T12:36:19;4.70;;;2.77;;
15833;SDS011;8017;50.812;4.934;2022-11-20T12:39:33;5.20;;;2.50;;
15833;SDS011;8017;50.812;4.934;2022-11-20T12:42:44;8.83;;;2.77;;
15833;SDS011;8017;50.812;4.934;2022-11-20T12:46:21;6.17;;;2.83;;
15833;SDS011;8017;50.812;4.934;2022-11-20T12:49:31;7.47;;;2.53;;
15833;SDS011;8017;50.812;4.934;2022-11-20T12:52:43;5.40;;;3.00;;
15833;SDS011;8017;50.812;4.934;2022-11-20T12:55:49;7.13;;;3.30;;
15833;SDS011;8017;50.812;4.934;2022-11-20T12:59:01;4.20;;;2.63;;
15833;SDS011;8017;50.812;4.934;2022-11-20T13:02:21;8.87;;;3.30;;
15833;SDS011;8017;50.812;4.934;2022-11-20T13:05:28;3.90;;;2.83;;
15833;SDS011;8017;50.812;4.934;2022-11-20T13:08:38;4.83;;;2.60;;
15833;SDS011;8017;50.812;4.934;2022-11-20T13:11:43;4.93;;;2.57;;
15833;SDS011;8017;50.812;4.934;2022-11-20T13:14:52;8.40;;;3.07;;
15833;SDS011;8017;50.812;4.934;2022-11-20T13:18:00;8.50;;;3.17;;
15833;SDS011;8017;50.812;4.934;2022-11-20T13:21:12;8.33;;;3.03;;
15833;SDS011;8017;50.812;4.934;2022-11-20T13:24:23;6.77;;;2.90;;
15833;SDS011;8017;50.812;4.934;2022-11-20T13:27:27;8.40;;;3.33;;
15833;SDS011;8017;50.812;4.934;2022-11-20T13:30:32;8.10;;;3.50;;
15833;SDS011;8017;50.812;4.934;2022-11-20T13:33:36;5.07;;;2.33;;
15833;SDS011;8017;50.812;4.934;2022-11-20T13:36:48;5.67;;;2.60;;
15833;SDS011;8017;50.812;4.934;2022-11-20T13:39:51;8.57;;;3.00;;
15833;SDS011;8017;50.812;4.934;2022-11-20T13:43:01;6.57;;;3.13;;
15833;SDS011;8017;50.812;4.934;2022-11-20T13:46:09;6.30;;;2.73;;
15833;SDS011;8017;50.812;4.934;2022-11-20T13:49:16;11.73;;;5.93;;
15833;SDS011;8017;50.812;4.934;2022-11-20T13:52:31;10.33;;;3.03;;
15833;SDS011;8017;50.812;4.934;2022-11-20T13:55:45;4.47;;;2.40;;
15833;SDS011;8017;50.812;4.934;2022-11-20T13:58:57;2.20;;;1.80;;
15833;SDS011;8017;50.812;4.934;2022-11-20T14:02:10;7.70;;;2.70;;
15833;SDS011;8017;50.812;4.934;2022-11-20T14:05:17;5.77;;;2.30;;
15833;SDS011;8017;50.812;4.934;2022-11-20T14:08:27;5.50;;;2.37;;
15833;SDS011;8017;50.812;4.934;2022-11-20T14:11:34;4.17;;;2.70;;
15833;SDS011;8017;50.812;4.934;2022-11-20T14:14:36;3.70;;;2.47;;
15833;SDS011;8017;50.812;4.934;2022-11-20T14:17:51;6.77;;;2.63;;
15833;SDS011;8017;50.812;4.934;2022-11-20T14:20:53;5.30;;;2.43;;
15833;SDS011;8017;50.812;4.934;2022-11-20T14:24:02;4.90;;;2.27;;
15833;SDS011;8017;50.812;4.934;2022-11-20T14:27:09;8.43;;;2.77;;
15833;SDS011;8017;50.812;4.934;2022-11-20T14:30:14;3.33;;;2.20;;
15833;SDS011;8017;50.812;4.934;2022-11-20T14:33:19;7.20;;;2.27;;
15833;SDS011;8017;50.812;4.934;2022-11-20T14:36:24;5.73;;;3.20;;
15833;SDS011;8017;50.812;4.934;2022-11-20T14:39:29;4.47;;;2.90;;
15833;SDS011;8017;50.812;4.934;2022-11-20T14:42:33;5.57;;;2.63;;
15833;SDS011;8017;50.812;4.934;2022-11-20T14:45:37;5.63;;;3.10;;
15833;SDS011;8017;50.812;4.934;2022-11-20T14:48:41;4.77;;;2.60;;
15833;SDS011;8017;50.812;4.934;2022-11-20T14:51:47;3.20;;;2.30;;
15833;SDS011;8017;50.812;4.934;2022-11-20T14:55:00;3.77;;;2.37;;
15833;SDS011;8017;50.812;4.934;2022-11-20T14:58:03;5.63;;;2.63;;
15833;SDS011;8017;50.812;4.934;2022-11-20T15:01:06;6.00;;;2.50;;
15833;SDS011;8017;50.812;4.934;2022-11-20T15:04:14;2.70;;;2.10;;
15833;SDS011;8017;50.812;4.934;2022-11-20T15:07:23;3.60;;;2.30;;
15833;SDS011;8017;50.812;4.934;2022-11-20T15:10:26;5.73;;;2.33;;
15833;SDS011;8017;50.812;4.934;2022-11-20T15:13:29;4.70;;;2.10;;
15833;SDS011;8017;50.812;4.934;2022-11-20T15:16:32;3.20;;;2.40;;
15833;SDS011;8017;50.812;4.934;2022-11-20T15:19:36;2.40;;;1.57;;
15833;SDS011;8017;50.812;4.934;2022-11-20T15:22:37;4.20;;;1.80;;
15833;SDS011;8017;50.812;4.934;2022-11-20T15:25:39;2.93;;;1.50;;
15833;SDS011;8017;50.812;4.934;2022-11-20T15:28:42;2.10;;;1.90;;
15833;SDS011;8017;50.812;4.934;2022-11-20T15:31:47;2.03;;;1.77;;
15833;SDS011;8017;50.812;4.934;2022-11-20T15:34:52;5.07;;;2.10;;
15833;SDS011;8017;50.812;4.934;2022-11-20T15:37:54;2.70;;;1.80;;
15833;SDS011;8017;50.812;4.934;2022-11-20T15:40:56;2.27;;;1.70;;
15833;SDS011;8017;50.812;4.934;2022-11-20T15:43:58;1.93;;;1.73;;
15833;SDS011;8017;50.812;4.934;2022-11-20T15:47:00;3.10;;;2.30;;
15833;SDS011;8017;50.812;4.934;2022-11-20T15:50:03;3.40;;;2.67;;
15833;SDS011;8017;50.812;4.934;2022-11-20T15:53:10;5.80;;;2.80;;
15833;SDS011;8017;50.812;4.934;2022-11-20T15:56:12;4.87;;;2.70;;
15833;SDS011;8017;50.812;4.934;2022-11-20T15:59:15;5.30;;;2.60;;
15833;SDS011;8017;50.812;4.934;2022-11-20T16:02:17;8.07;;;3.20;;
15833;SDS011;8017;50.812;4.934;2022-11-20T16:05:20;5.07;;;3.20;;
15833;SDS011;8017;50.812;4.934;2022-11-20T16:08:24;5.20;;;3.23;;
15833;SDS011;8017;50.812;4.934;2022-11-20T16:11:26;5.50;;;3.47;;
15833;SDS011;8017;50.812;4.934;2022-11-20T16:14:28;8.90;;;3.77;;
15833;SDS011;8017;50.812;4.934;2022-11-20T16:17:47;7.03;;;3.93;;
15833;SDS011;8017;50.812;4.934;2022-11-20T16:20:51;6.00;;;3.73;;
15833;SDS011;8017;50.812;4.934;2022-11-20T16:23:54;10.80;;;3.77;;
15833;SDS011;8017;50.812;4.934;2022-11-20T16:26:56;6.20;;;3.90;;
15833;SDS011;8017;50.812;4.934;2022-11-20T16:29:58;7.53;;;3.93;;
15833;SDS011;8017;50.812;4.934;2022-11-20T16:33:00;6.87;;;3.77;;
15833;SDS011;8017;50.812;4.934;2022-11-20T16:36:09;9.27;;;5.00;;
15833;SDS011;8017;50.812;4.934;2022-11-20T16:39:12;10.47;;;4.47;;
15833;SDS011;8017;50.812;4.934;2022-11-20T16:42:14;9.33;;;3.87;;
15833;SDS011;8017;50.812;4.934;2022-11-20T16:45:16;4.73;;;3.67;;
15833;SDS011;8017;50.812;4.934;2022-11-20T16:48:18;9.83;;;4.23;;
15833;SDS011;8017;50.812;4.934;2022-11-20T16:51:22;7.47;;;3.90;;
15833;SDS011;8017;50.812;4.934;2022-11-20T16:54:25;9.13;;;4.03;;
15833;SDS011;8017;50.812;4.934;2022-11-20T16:57:27;11.37;;;4.80;;
15833;SDS011;8017;50.812;4.934;2022-11-20T17:00:29;14.20;;;4.97;;
15833;SDS011;8017;50.812;4.934;2022-11-20T17:03:31;11.40;;;5.13;;
15833;SDS011;8017;50.812;4.934;2022-11-20T17:06:35;10.70;;;5.00;;
15833;SDS011;8017;50.812;4.934;2022-11-20T17:09:38;14.30;;;5.57;;
15833;SDS011;8017;50.812;4.934;2022-11-20T17:12:39;14.10;;;5.30;;
15833;SDS011;8017;50.812;4.934;2022-11-20T17:15:41;13.07;;;5.03;;
15833;SDS011;8017;50.812;4.934;2022-11-20T17:18:43;10.27;;;4.33;;
15833;SDS011;8017;50.812;4.934;2022-11-20T17:21:47;13.63;;;4.47;;
15833;SDS011;8017;50.812;4.934;2022-11-20T17:24:49;14.17;;;4.93;;
15833;SDS011;8017;50.812;4.934;2022-11-20T17:27:51;11.37;;;4.60;;
15833;SDS011;8017;50.812;4.934;2022-11-20T17:30:57;15.77;;;4.43;;
15833;SDS011;8017;50.812;4.934;2022-11-20T17:34:00;12.30;;;4.73;;
15833;SDS011;8017;50.812;4.934;2022-11-20T17:37:03;12.53;;;4.27;;
15833;SDS011;8017;50.812;4.934;2022-11-20T17:40:06;14.57;;;4.93;;
15833;SDS011;8017;50.812;4.934;2022-11-20T17:43:08;14.50;;;4.87;;
15833;SDS011;8017;50.812;4.934;2022-11-20T17:46:10;17.90;;;5.13;;
15833;SDS011;8017;50.812;4.934;2022-11-20T17:49:14;10.70;;;3.90;;
15833;SDS011;8017;50.812;4.934;2022-11-20T17:52:17;11.90;;;3.47;;
15833;SDS011;8017;50.812;4.934;2022-11-20T17:55:19;7.90;;;2.90;;
15833;SDS011;8017;50.812;4.934;2022-11-20T17:58:21;8.40;;;2.93;;
15833;SDS011;8017;50.812;4.934;2022-11-20T18:01:22;7.97;;;2.43;;
15833;SDS011;8017;50.812;4.934;2022-11-20T18:04:24;5.20;;;1.80;;
15833;SDS011;8017;50.812;4.934;2022-11-20T18:07:27;6.57;;;2.47;;
15833;SDS011;8017;50.812;4.934;2022-11-20T18:10:29;6.03;;;3.03;;
15833;SDS011;8017;50.812;4.934;2022-11-20T18:13:32;8.47;;;2.63;;
15833;SDS011;8017;50.812;4.934;2022-11-20T18:16:49;9.03;;;2.00;;
15833;SDS011;8017;50.812;4.934;2022-11-20T18:19:51;7.97;;;3.07;;
15833;SDS011;8017;50.812;4.934;2022-11-20T18:22:55;6.73;;;2.10;;
15833;SDS011;8017;50.812;4.934;2022-11-20T18:25:58;6.77;;;2.37;;
15833;SDS011;8017;50.812;4.934;2022-11-20T18:29:00;4.30;;;1.67;;
15833;SDS011;8017;50.812;4.934;2022-11-20T18:32:02;6.83;;;2.00;;